createdAt,value
2023-12-30T00:03:24.259Z,100363.72
2023-12-30T00:07:29.115Z,100368.06
2023-12-30T00:11:34.343Z,100365.59
2023-12-30T00:15:42.301Z,100364.53
2023-12-30T00:19:48.267Z,100374.28
2023-12-30T00:23:53.138Z,100376.63
2023-12-30T00:27:58.619Z,100380.63
2023-12-30T00:32:06.549Z,100382.25
2023-12-30T00:36:17.257Z,100391.19
2023-12-30T00:40:26.709Z,100395.31
2023-12-30T00:44:32.971Z,100393.81
2023-12-30T00:48:40.707Z,100393.59
2023-12-30T00:52:45.760Z,100402.53
2023-12-30T00:56:51.785Z,100407.50
2023-12-30T01:00:57.334Z,100405.81
2023-12-30T01:05:05.487Z,100418.91
2023-12-30T01:09:13.164Z,100419.97
2023-12-30T01:13:19.750Z,100419.97
2023-12-30T01:17:24.923Z,100418.50
2023-12-30T01:21:33.540Z,100433.06
2023-12-30T01:25:40.110Z,100452.44
2023-12-30T01:29:45.257Z,100439.97
2023-12-30T01:33:50.567Z,100457.50
2023-12-30T01:37:58.160Z,100459.19
2023-12-30T01:42:03.056Z,100473.75
2023-12-30T01:46:11.158Z,100457.19
2023-12-30T01:50:16.540Z,100470.69
2023-12-30T01:54:26.128Z,100476.34
2023-12-30T01:58:32.826Z,100480.06
2023-12-30T02:02:37.751Z,100477.59
2023-12-30T02:06:43.320Z,100489.47
2023-12-30T02:10:51.024Z,100488.03
2023-12-30T02:14:55.965Z,100501.72
2023-12-30T02:19:00.971Z,100493.63
2023-12-30T02:23:08.769Z,100504.69
2023-12-30T02:27:16.160Z,100506.56
2023-12-30T02:31:21.244Z,100506.19
2023-12-30T02:35:28.846Z,100503.09
2023-12-30T02:39:36.841Z,100519.28
2023-12-30T02:43:56.723Z,100524.91
2023-12-30T02:48:01.862Z,100517.44
2023-12-30T02:52:11.860Z,100515.56
2023-12-30T02:56:27.739Z,100514.38
2023-12-30T03:00:32.873Z,100523.88
2023-12-30T03:04:43.028Z,100526.19
2023-12-30T03:08:48.323Z,100525.56
2023-12-30T03:12:55.814Z,100539.88
2023-12-30T03:17:00.847Z,100539.06
2023-12-30T03:21:08.533Z,100555.88
2023-12-30T03:25:14.433Z,100548.63
2023-12-30T03:29:21.983Z,100551.13
2023-12-30T03:33:27.251Z,100540.94
2023-12-30T03:37:32.470Z,100542.59
2023-12-30T03:41:38.112Z,100543.84
2023-12-30T03:45:46.584Z,100539.50
2023-12-30T03:49:51.524Z,100548.44
2023-12-30T03:53:56.739Z,100544.47
2023-12-30T03:58:01.856Z,100551.50
2023-12-30T04:02:09.529Z,100557.72
2023-12-30T04:06:24.104Z,100544.88
2023-12-30T04:10:29.029Z,100553.34
2023-12-30T04:14:34.036Z,100553.34
2023-12-30T04:18:42.576Z,100556.28
2023-12-30T04:22:48.020Z,100554.81
2023-12-30T04:26:53.275Z,100546.50
2023-12-30T04:30:58.453Z,100551.06
2023-12-30T04:35:06.053Z,100546.88
2023-12-30T04:39:11.702Z,100562.25
2023-12-30T04:43:16.755Z,100573.88
2023-12-30T04:47:21.990Z,100573.69
2023-12-30T04:51:29.381Z,100572.41
2023-12-30T04:55:36.079Z,100578.41
2023-12-30T04:59:40.969Z,100570.09
2023-12-30T05:03:46.077Z,100575.34
2023-12-30T05:07:53.675Z,100576.75
2023-12-30T05:11:58.581Z,100576.97
2023-12-30T05:16:04.533Z,100582.97
2023-12-30T05:20:11.797Z,100591.09
2023-12-30T05:24:20.006Z,100586.50
2023-12-30T05:28:24.992Z,100601.88
2023-12-30T05:32:30.491Z,100607.88
2023-12-30T05:36:35.380Z,100614.75
2023-12-30T05:40:43.874Z,100621.38
2023-12-30T05:44:48.805Z,100616.63
2023-12-30T05:48:54.028Z,100624.50
2023-12-30T05:53:00.348Z,100614.75
2023-12-30T05:57:08.224Z,100616.78
2023-12-30T06:01:14.350Z,100638.59
2023-12-30T06:05:19.245Z,100638.81
2023-12-30T06:09:24.285Z,100636.72
2023-12-30T06:13:33.414Z,100644.00
2023-12-30T06:17:38.750Z,100649.63
2023-12-30T06:21:43.571Z,100655.25
2023-12-30T06:25:48.569Z,100660.44
2023-12-30T06:29:56.297Z,100672.47
2023-12-30T06:34:01.687Z,100659.34
2023-12-30T06:38:07.195Z,100672.63
2023-12-30T06:42:12.016Z,100662.47
2023-12-30T06:46:22.274Z,100672.84
2023-12-30T06:50:27.471Z,100685.31
2023-12-30T06:54:32.240Z,100679.09
2023-12-30T06:58:37.710Z,100685.75
2023-12-30T07:02:45.869Z,100683.06
2023-12-30T07:06:51.529Z,100691.16
2023-12-30T07:10:56.642Z,100694.69
2023-12-30T07:15:02.119Z,100700.31
2023-12-30T07:19:09.837Z,100710.06
2023-12-30T07:23:15.080Z,100714.84
2023-12-30T07:27:19.950Z,100721.06
2023-12-30T07:31:25.120Z,100705.28
2023-12-30T07:35:32.644Z,100717.75
2023-12-30T07:39:37.859Z,100726.06
2023-12-30T07:43:42.982Z,100729.59
2023-12-30T07:47:47.994Z,100739.56
2023-12-30T07:51:55.586Z,100743.91
2023-12-30T07:56:01.291Z,100749.31
2023-12-30T08:00:06.428Z,100762.00
2023-12-30T08:04:17.178Z,100756.38
2023-12-30T08:08:25.000Z,100759.91
2023-12-30T08:12:29.952Z,100770.91
2023-12-30T08:16:34.796Z,100770.09
2023-12-30T08:20:39.740Z,100777.78
2023-12-30T08:24:47.174Z,100782.97
2023-12-30T08:28:52.341Z,100786.28
2023-12-30T08:32:58.010Z,100796.44
2023-12-30T08:37:09.677Z,100805.38
2023-12-30T08:41:20.907Z,100801.22
2023-12-30T08:45:26.047Z,100813.25
2023-12-30T08:49:31.105Z,100811.38
2023-12-30T08:53:36.206Z,100818.88
2023-12-30T08:57:44.561Z,100828.41
2023-12-30T09:01:50.499Z,100823.63
2023-12-30T09:05:55.567Z,100834.00
2023-12-30T09:10:00.742Z,100833.97
2023-12-30T09:14:08.925Z,100839.16
2023-12-30T09:18:15.433Z,100839.13
2023-12-30T09:22:20.606Z,100833.31
2023-12-30T09:26:25.416Z,100838.72
2023-12-30T09:30:33.222Z,100843.22
2023-12-30T09:34:42.104Z,100839.91
2023-12-30T09:38:49.160Z,100852.78
2023-12-30T09:42:55.063Z,100852.34
2023-12-30T09:47:08.200Z,100865.84
2023-12-30T09:51:14.386Z,100863.34
2023-12-30T09:55:19.261Z,100861.25
2023-12-30T09:59:24.712Z,100862.28
2023-12-30T10:03:32.591Z,100863.50
2023-12-30T10:07:39.370Z,100858.91
2023-12-30T10:11:45.093Z,100864.06
2023-12-30T10:15:50.461Z,100864.25
2023-12-30T10:19:58.328Z,100862.75
2023-12-30T10:24:05.779Z,100865.63
2023-12-30T10:28:10.828Z,100871.59
2023-12-30T10:32:15.753Z,100871.41
2023-12-30T10:36:23.564Z,100857.44
2023-12-30T10:40:28.966Z,100865.97
2023-12-30T10:44:34.035Z,100865.47
2023-12-30T10:48:57.147Z,100860.28
2023-12-30T10:53:09.854Z,100853.81
2023-12-30T10:57:21.962Z,100860.06
2023-12-30T11:01:29.273Z,100869.38
2023-12-30T11:05:38.495Z,100871.25
2023-12-30T11:09:46.861Z,100880.78
2023-12-30T11:13:52.301Z,100873.69
2023-12-30T11:17:57.927Z,100874.69
2023-12-30T11:22:04.871Z,100868.22
2023-12-30T11:26:16.295Z,100863.78
2023-12-30T11:30:27.579Z,100858.75
2023-12-30T11:34:33.144Z,100858.97
2023-12-30T11:38:41.738Z,100861.41
2023-12-30T11:42:49.430Z,100855.16
2023-12-30T11:46:55.078Z,100854.34
2023-12-30T11:51:00.409Z,100837.25
2023-12-30T11:55:06.423Z,100818.13
2023-12-30T11:59:15.782Z,100813.31
2023-12-30T12:03:20.798Z,100811.00
2023-12-30T12:07:25.996Z,100814.06
2023-12-30T12:11:32.689Z,100808.41
2023-12-30T12:15:41.165Z,100806.66
2023-12-30T12:19:46.638Z,100823.56
2023-12-30T12:23:51.841Z,100806.84
2023-12-30T12:27:57.850Z,100817.59
2023-12-30T12:32:08.197Z,100810.53
2023-12-30T12:36:13.542Z,100805.50
2023-12-30T12:40:19.923Z,100800.00
2023-12-30T12:44:25.151Z,100805.47
2023-12-30T12:48:32.953Z,100811.22
2023-12-30T12:52:38.816Z,100806.63
2023-12-30T12:56:44.284Z,100792.16
2023-12-30T13:00:51.491Z,100793.81
2023-12-30T13:04:59.406Z,100778.03
2023-12-30T13:09:22.644Z,100780.88
2023-12-30T13:13:29.518Z,100774.59
2023-12-30T13:17:35.246Z,100776.50
2023-12-30T13:21:43.229Z,100776.41
2023-12-30T13:26:00.227Z,100776.22
2023-12-30T13:30:10.848Z,100772.78
2023-12-30T13:34:17.411Z,100758.09
2023-12-30T13:38:29.181Z,100753.97
2023-12-30T13:42:34.017Z,100749.50
2023-12-30T13:46:58.553Z,100752.56
2023-12-30T13:51:13.428Z,100749.03
2023-12-30T13:55:23.488Z,100744.91
2023-12-30T13:59:28.757Z,100739.63
2023-12-30T14:03:34.025Z,100743.63
2023-12-30T14:07:39.021Z,100735.03
2023-12-30T14:11:52.964Z,100731.63
2023-12-30T14:15:59.046Z,100728.06
2023-12-30T14:20:05.918Z,100724.09
2023-12-30T14:24:16.804Z,100724.44
2023-12-30T14:28:25.410Z,100720.56
2023-12-30T14:32:30.522Z,100712.41
2023-12-30T14:36:35.693Z,100721.81
2023-12-30T14:40:40.781Z,100712.63
2023-12-30T14:44:48.793Z,100706.75
2023-12-30T14:48:54.385Z,100714.91
2023-12-30T14:52:59.290Z,100714.66
2023-12-30T14:57:04.936Z,100713.00
2023-12-30T15:01:12.595Z,100713.84
2023-12-30T15:05:17.794Z,100702.84
2023-12-30T15:09:23.245Z,100691.16
2023-12-30T15:13:28.569Z,100691.41
2023-12-30T15:17:36.583Z,100686.31
2023-12-30T15:21:41.813Z,100683.47
2023-12-30T15:25:48.501Z,100681.81
2023-12-30T15:29:53.629Z,100677.75
2023-12-30T15:34:01.476Z,100686.59
2023-12-30T15:38:07.039Z,100682.53
2023-12-30T15:42:12.125Z,100679.69
2023-12-30T15:46:17.723Z,100678.25
2023-12-30T15:50:25.777Z,100672.25
2023-12-30T15:54:30.922Z,100674.22
2023-12-30T15:58:36.193Z,100666.75
2023-12-30T16:02:41.246Z,100671.81
2023-12-30T16:06:49.143Z,100665.41
2023-12-30T16:10:54.917Z,100664.00
2023-12-30T16:15:00.944Z,100661.97
2023-12-30T16:19:06.296Z,100665.69
2023-12-30T16:23:13.848Z,100658.44
2023-12-30T16:27:18.882Z,100656.75
2023-12-30T16:31:25.176Z,100659.25
2023-12-30T16:35:30.373Z,100651.97
2023-12-30T16:39:38.714Z,100653.38
2023-12-30T16:43:43.812Z,100642.53
2023-12-30T16:47:48.953Z,100651.28
2023-12-30T16:51:54.055Z,100643.97
2023-12-30T16:56:02.989Z,100651.06
2023-12-30T17:00:10.482Z,100642.09
2023-12-30T17:04:15.771Z,100647.28
2023-12-30T17:08:22.985Z,100632.66
2023-12-30T17:12:31.000Z,100637.41
2023-12-30T17:16:36.339Z,100627.16
2023-12-30T17:20:47.230Z,100632.81
2023-12-30T17:24:53.589Z,100628.22
2023-12-30T17:29:01.087Z,100627.84
2023-12-30T17:33:07.346Z,100624.94
2023-12-30T17:37:12.872Z,100635.78
2023-12-30T17:41:18.614Z,100626.59
2023-12-30T17:45:27.854Z,100626.59
2023-12-30T17:49:33.475Z,100617.16
2023-12-30T17:53:38.545Z,100617.78
2023-12-30T17:57:43.879Z,100621.22
2023-12-30T18:01:53.185Z,100625.09
2023-12-30T18:05:58.934Z,100627.56
2023-12-30T18:10:04.452Z,100615.81
2023-12-30T18:14:26.206Z,100618.09
2023-12-30T18:18:42.872Z,100618.56
2023-12-30T18:22:53.768Z,100618.72
2023-12-30T18:26:58.796Z,100610.34
2023-12-30T18:31:05.368Z,100614.69
2023-12-30T18:35:13.830Z,100604.00
2023-12-30T18:39:19.406Z,100590.88
2023-12-30T18:43:24.681Z,100585.25
2023-12-30T18:47:30.643Z,100581.47
2023-12-30T18:51:38.785Z,100587.16
2023-12-30T18:55:45.124Z,100577.56
2023-12-30T18:59:50.260Z,100581.81
2023-12-30T19:03:57.827Z,100576.41
2023-12-30T19:08:06.900Z,100568.72
2023-12-30T19:12:12.365Z,100553.75
2023-12-30T19:16:17.531Z,100553.38
2023-12-30T19:20:38.570Z,100554.91
2023-12-30T19:24:52.225Z,100555.38
2023-12-30T19:29:04.472Z,100537.47
2023-12-30T19:33:21.750Z,100538.13
2023-12-30T19:37:37.860Z,100534.03
2023-12-30T19:41:45.878Z,100520.72
2023-12-30T19:45:51.254Z,100524.94
2023-12-30T19:49:58.094Z,100510.56
2023-12-30T19:54:04.253Z,100503.34
2023-12-30T19:58:12.467Z,100507.94
2023-12-30T20:02:17.630Z,100500.66
2023-12-30T20:06:22.789Z,100498.56
2023-12-30T20:10:27.704Z,100491.25
2023-12-30T20:14:36.660Z,100482.06
2023-12-30T20:18:45.493Z,100479.94
2023-12-30T20:22:51.968Z,100474.75
2023-12-30T20:26:58.618Z,100474.75
2023-12-30T20:31:07.085Z,100467.31
2023-12-30T20:35:12.598Z,100452.94
2023-12-30T20:39:17.796Z,100458.84
2023-12-30T20:43:22.675Z,100447.38
2023-12-30T20:47:30.483Z,100443.28
2023-12-30T20:51:35.882Z,100445.97
2023-12-30T20:55:41.053Z,100427.25
2023-12-30T20:59:47.398Z,100423.25
2023-12-30T21:03:55.574Z,100412.06
2023-12-30T21:08:02.058Z,100400.38
2023-12-30T21:12:12.727Z,100406.41
2023-12-30T21:16:28.309Z,100408.97
2023-12-30T21:20:45.369Z,100408.16
2023-12-30T21:24:51.031Z,100406.66
2023-12-30T21:28:56.398Z,100404.53
2023-12-30T21:33:02.450Z,100395.09
2023-12-30T21:37:10.677Z,100390.28
2023-12-30T21:41:24.122Z,100377.56
2023-12-30T21:45:31.401Z,100375.88
2023-12-30T21:49:40.786Z,100366.94
2023-12-30T21:53:48.943Z,100362.25
2023-12-30T21:58:04.125Z,100358.09
2023-12-30T22:02:23.140Z,100359.97
2023-12-30T22:06:40.431Z,100348.56
2023-12-30T22:10:47.905Z,100353.97
2023-12-30T22:14:56.465Z,100342.31
2023-12-30T22:19:28.266Z,100341.25
2023-12-30T22:23:44.324Z,100338.56
2023-12-30T22:28:06.103Z,100331.84
2023-12-30T22:32:24.189Z,100326.41
2023-12-30T22:36:37.167Z,100324.78
2023-12-30T22:40:47.248Z,100321.81
2023-12-30T22:45:09.251Z,100317.84
2023-12-30T22:49:29.489Z,100315.25
2023-12-30T22:53:45.153Z,100309.91
2023-12-30T22:57:52.161Z,100295.91
2023-12-30T23:01:59.968Z,100298.75
2023-12-30T23:06:04.907Z,100296.94
2023-12-30T23:10:12.791Z,100286.47
2023-12-30T23:14:19.187Z,100269.97
2023-12-30T23:18:26.977Z,100264.91
2023-12-30T23:22:41.036Z,100252.28
2023-12-30T23:26:47.019Z,100259.44
2023-12-30T23:30:55.121Z,100243.53
2023-12-30T23:35:14.015Z,100225.94
2023-12-30T23:39:25.292Z,100220.03
2023-12-30T23:43:30.182Z,100203.63
2023-12-30T23:47:35.769Z,100213.06
2023-12-30T23:51:44.704Z,100206.34
2023-12-30T23:55:50.867Z,100193.59
2023-12-30T23:59:56.976Z,100193.50
